createdAt,value
2018-12-02T00:00:50.089Z,24.47
2018-12-02T00:01:50.075Z,24.53
2018-12-02T00:02:50.066Z,24.50
2018-12-02T00:03:50.051Z,24.52
2018-12-02T00:04:50.041Z,24.43
2018-12-02T00:05:50.029Z,24.55
2018-12-02T00:06:50.018Z,24.46
2018-12-02T00:07:50.013Z,24.46
2018-12-02T00:08:49.995Z,24.49
2018-12-02T00:09:49.983Z,24.46
2018-12-02T00:10:49.971Z,24.52
2018-12-02T00:11:49.962Z,24.43
2018-12-02T00:12:49.950Z,24.49
2018-12-02T00:13:49.940Z,24.43
2018-12-02T00:14:49.931Z,24.57
2018-12-02T00:15:49.916Z,24.49
2018-12-02T00:16:49.906Z,24.55
2018-12-02T00:17:49.895Z,24.47
2018-12-02T00:18:49.903Z,24.50
2018-12-02T00:19:49.871Z,24.53
2018-12-02T00:20:49.860Z,24.50
2018-12-02T00:21:49.848Z,24.53
2018-12-02T00:22:50.625Z,24.53
2018-12-02T00:23:49.826Z,24.49
2018-12-02T00:24:49.816Z,24.50
2018-12-02T00:25:49.805Z,24.50
2018-12-02T00:26:49.791Z,24.45
2018-12-02T00:27:49.782Z,24.55
2018-12-02T00:28:49.772Z,24.57
2018-12-02T00:29:49.765Z,24.53
2018-12-02T00:30:49.747Z,24.52
2018-12-02T00:31:49.735Z,24.50
2018-12-02T00:32:49.725Z,24.52
2018-12-02T00:33:49.712Z,24.47
2018-12-02T00:34:49.703Z,24.52
2018-12-02T00:35:49.693Z,24.57
2018-12-02T00:36:49.679Z,24.47
2018-12-02T00:37:49.672Z,24.50
2018-12-02T00:38:49.661Z,24.49
2018-12-02T00:39:49.645Z,24.47
2018-12-02T00:40:49.921Z,24.49
2018-12-02T00:41:49.622Z,24.50
2018-12-02T00:42:49.612Z,24.53
2018-12-02T00:43:49.600Z,24.52
2018-12-02T00:44:49.588Z,24.45
2018-12-02T00:45:49.579Z,24.47
2018-12-02T00:46:49.568Z,24.49
2018-12-02T00:47:49.556Z,24.55
2018-12-02T00:48:49.543Z,24.43
2018-12-02T00:49:49.534Z,24.53
2018-12-02T00:50:49.520Z,24.52
2018-12-02T00:51:49.531Z,24.57
2018-12-02T00:52:49.498Z,24.47
2018-12-02T00:53:49.486Z,24.53
2018-12-02T00:54:49.475Z,24.50
2018-12-02T00:55:49.464Z,24.43
2018-12-02T00:56:49.453Z,24.57
2018-12-02T00:57:49.444Z,24.49
2018-12-02T00:58:49.430Z,24.42
2018-12-02T00:59:49.425Z,24.43
2018-12-02T01:00:49.407Z,24.49
2018-12-02T01:01:49.397Z,24.43
2018-12-02T01:02:49.398Z,24.58
2018-12-02T01:03:49.373Z,24.50
2018-12-02T01:04:49.362Z,24.43
2018-12-02T01:05:49.353Z,24.42
2018-12-02T01:06:53.521Z,24.50
2018-12-02T01:07:49.328Z,24.50
2018-12-02T01:08:49.321Z,24.49
2018-12-02T01:09:49.309Z,24.40
2018-12-02T01:10:49.294Z,24.39
2018-12-02T01:11:49.285Z,24.53
2018-12-02T01:12:49.272Z,24.53
2018-12-02T01:13:49.267Z,24.52
2018-12-02T01:14:49.250Z,24.45
2018-12-02T01:15:49.240Z,24.39
2018-12-02T01:16:49.225Z,24.52
2018-12-02T01:17:49.214Z,24.39
2018-12-02T01:18:49.203Z,24.50
2018-12-02T01:19:49.195Z,24.40
2018-12-02T01:20:49.181Z,24.53
2018-12-02T01:21:49.169Z,24.55
2018-12-02T01:22:49.158Z,24.42
2018-12-02T01:23:49.147Z,24.49
2018-12-02T01:24:49.156Z,24.40
2018-12-02T01:25:49.130Z,24.50
2018-12-02T01:26:49.111Z,24.37
2018-12-02T01:27:49.101Z,24.46
2018-12-02T01:28:49.094Z,24.47
2018-12-02T01:29:49.078Z,24.39
2018-12-02T01:30:49.069Z,24.46
2018-12-02T01:31:49.055Z,24.42
2018-12-02T01:32:49.045Z,24.53
2018-12-02T01:33:49.032Z,24.40
2018-12-02T01:34:49.021Z,24.50
2018-12-02T01:35:49.020Z,24.34
2018-12-02T01:36:49.001Z,24.40
2018-12-02T01:37:48.987Z,24.43
2018-12-02T01:38:48.977Z,24.49
2018-12-02T01:39:48.965Z,24.49
2018-12-02T01:40:48.954Z,24.52
2018-12-02T01:41:48.943Z,24.42
2018-12-02T01:42:48.930Z,24.47
2018-12-02T01:43:48.921Z,24.47
2018-12-02T01:44:48.909Z,24.49
2018-12-02T01:45:48.907Z,24.52
2018-12-02T01:46:48.893Z,24.52
2018-12-02T01:47:48.874Z,24.40
2018-12-02T01:48:48.863Z,24.55
2018-12-02T01:49:48.851Z,24.34
2018-12-02T01:50:48.842Z,24.49
2018-12-02T01:51:48.830Z,24.46
2018-12-02T01:52:48.819Z,24.47
2018-12-02T01:53:48.807Z,24.50
2018-12-02T01:54:48.795Z,24.47
2018-12-02T01:55:48.784Z,24.35
2018-12-02T01:56:48.772Z,24.39
2018-12-02T01:57:48.774Z,24.50
2018-12-02T01:58:48.752Z,24.37
2018-12-02T01:59:48.739Z,24.49
2018-12-02T02:00:48.730Z,24.43
2018-12-02T02:01:48.717Z,24.43
2018-12-02T02:02:48.704Z,24.49
2018-12-02T02:03:48.696Z,24.39
2018-12-02T02:04:48.683Z,24.53
2018-12-02T02:05:48.674Z,24.39
2018-12-02T02:06:48.660Z,24.42
2018-12-02T02:07:48.650Z,24.52
2018-12-02T02:08:48.644Z,24.40
2018-12-02T02:09:48.626Z,24.53
2018-12-02T02:10:48.615Z,24.37
2018-12-02T02:11:48.603Z,24.47
2018-12-02T02:12:48.594Z,24.50
2018-12-02T02:13:48.580Z,24.53
2018-12-02T02:14:48.631Z,24.53
2018-12-02T02:15:48.559Z,24.43
2018-12-02T02:16:48.546Z,24.52
2018-12-02T02:17:48.535Z,24.52
2018-12-02T02:18:48.525Z,24.39
2018-12-02T02:19:48.523Z,24.37
2018-12-02T02:20:48.501Z,24.43
2018-12-02T02:21:48.490Z,24.45
2018-12-02T02:22:48.490Z,24.45
2018-12-02T02:23:48.688Z,24.42
2018-12-02T02:24:48.458Z,24.39
2018-12-02T02:25:48.447Z,24.46
2018-12-02T02:26:48.435Z,24.40
2018-12-02T02:27:48.421Z,24.40
2018-12-02T02:28:48.410Z,24.35
2018-12-02T02:29:48.400Z,24.37
2018-12-02T02:30:48.412Z,24.39
2018-12-02T02:31:48.377Z,24.43
2018-12-02T02:32:48.366Z,24.43
2018-12-02T02:33:48.354Z,24.43
2018-12-02T02:34:48.342Z,24.50
2018-12-02T02:35:48.332Z,24.40
2018-12-02T02:36:48.322Z,24.42
2018-12-02T02:37:48.309Z,24.43
2018-12-02T02:38:48.298Z,24.43
2018-12-02T02:39:48.286Z,24.45
2018-12-02T02:40:48.275Z,24.43
2018-12-02T02:41:48.273Z,24.40
2018-12-02T02:42:48.254Z,24.49
2018-12-02T02:43:48.242Z,24.46
2018-12-02T02:44:48.233Z,24.42
2018-12-02T02:45:48.218Z,24.49
2018-12-02T02:46:48.209Z,24.40
2018-12-02T02:47:48.200Z,24.40
2018-12-02T02:48:48.186Z,24.47
2018-12-02T02:49:48.175Z,24.43
2018-12-02T02:50:48.163Z,24.43
2018-12-02T02:51:48.151Z,24.47
2018-12-02T02:52:48.149Z,24.40
2018-12-02T02:53:48.128Z,24.42
2018-12-02T02:54:48.118Z,24.45
2018-12-02T02:55:48.106Z,24.46
2018-12-02T02:56:48.095Z,24.42
2018-12-02T02:57:48.083Z,24.46
2018-12-02T02:58:48.072Z,24.45
2018-12-02T02:59:48.059Z,24.45
2018-12-02T03:00:48.051Z,24.47
2018-12-02T03:01:48.037Z,24.45
2018-12-02T03:02:48.028Z,24.43
2018-12-02T03:03:48.302Z,24.40
2018-12-02T03:04:48.004Z,24.45
2018-12-02T03:05:47.991Z,24.40
2018-12-02T03:06:47.981Z,24.45
2018-12-02T03:07:47.969Z,24.45
2018-12-02T03:08:47.957Z,24.47
2018-12-02T03:09:47.949Z,24.49
2018-12-02T03:10:47.936Z,24.47
2018-12-02T03:11:47.922Z,24.45
2018-12-02T03:12:47.915Z,24.45
2018-12-02T03:13:47.901Z,24.45
2018-12-02T03:14:48.208Z,24.46
2018-12-02T03:15:47.879Z,24.40
2018-12-02T03:16:47.866Z,24.39
2018-12-02T03:17:47.858Z,24.45
2018-12-02T03:18:47.845Z,24.43
2018-12-02T03:19:47.833Z,24.42
2018-12-02T03:20:47.824Z,24.47
2018-12-02T03:21:47.810Z,24.43
2018-12-02T03:22:47.799Z,24.37
2018-12-02T03:23:47.789Z,24.35
2018-12-02T03:24:47.777Z,24.37
2018-12-02T03:25:48.050Z,24.43
2018-12-02T03:26:47.753Z,24.34
2018-12-02T03:27:47.742Z,24.45
2018-12-02T03:28:47.732Z,24.42
2018-12-02T03:29:47.720Z,24.35
2018-12-02T03:30:47.709Z,24.45
2018-12-02T03:31:48.621Z,24.40
2018-12-02T03:32:47.707Z,24.35
2018-12-02T03:33:47.675Z,24.37
2018-12-02T03:34:47.664Z,24.45
2018-12-02T03:35:47.658Z,24.43
2018-12-02T03:36:47.659Z,24.37
2018-12-02T03:37:47.629Z,24.43
2018-12-02T03:38:47.619Z,24.45
2018-12-02T03:39:47.606Z,24.42
2018-12-02T03:40:47.594Z,24.42
2018-12-02T03:41:47.583Z,24.37
2018-12-02T03:42:47.576Z,24.45
2018-12-02T03:43:47.560Z,24.40
2018-12-02T03:44:47.548Z,24.35
2018-12-02T03:45:47.540Z,24.40
2018-12-02T03:46:47.529Z,24.35
2018-12-02T03:47:47.838Z,24.37
2018-12-02T03:48:47.505Z,24.45
2018-12-02T03:49:47.494Z,24.45
2018-12-02T03:50:47.490Z,24.39
2018-12-02T03:51:47.472Z,24.34
2018-12-02T03:52:47.461Z,24.40
2018-12-02T03:53:47.451Z,24.35
2018-12-02T03:54:47.438Z,24.37
2018-12-02T03:55:47.425Z,24.39
2018-12-02T03:56:47.444Z,24.35
2018-12-02T03:57:47.404Z,24.37
2018-12-02T03:58:47.454Z,24.35
2018-12-02T03:59:47.382Z,24.40
2018-12-02T04:00:47.368Z,24.35
2018-12-02T04:01:47.358Z,24.35
2018-12-02T04:02:47.350Z,24.47
2018-12-02T04:03:47.334Z,24.39
2018-12-02T04:04:47.325Z,24.31
2018-12-02T04:05:47.312Z,24.34
2018-12-02T04:06:47.300Z,24.37
2018-12-02T04:07:47.290Z,24.37
2018-12-02T04:08:47.278Z,24.35
2018-12-02T04:09:47.288Z,24.32
2018-12-02T04:10:47.260Z,24.32
2018-12-02T04:11:47.244Z,24.39
2018-12-02T04:12:47.234Z,24.39
2018-12-02T04:13:47.222Z,24.40
2018-12-02T04:14:47.217Z,24.39
2018-12-02T04:15:47.201Z,24.34
2018-12-02T04:16:47.187Z,24.31
2018-12-02T04:17:47.197Z,24.32
2018-12-02T04:18:47.166Z,24.31
2018-12-02T04:19:47.154Z,24.34
2018-12-02T04:20:47.467Z,24.40
2018-12-02T04:21:47.135Z,24.37
2018-12-02T04:22:47.121Z,24.35
2018-12-02T04:23:47.108Z,24.32
2018-12-02T04:24:47.098Z,24.45
2018-12-02T04:25:47.098Z,24.42
2018-12-02T04:26:47.079Z,24.31
2018-12-02T04:27:47.078Z,24.39
2018-12-02T04:28:47.053Z,24.45
2018-12-02T04:29:47.041Z,24.40
2018-12-02T04:30:47.030Z,24.35
2018-12-02T04:31:47.312Z,24.35
2018-12-02T04:32:47.010Z,24.39
2018-12-02T04:33:47.004Z,24.42
2018-12-02T04:34:46.987Z,24.35
2018-12-02T04:35:46.975Z,24.34
2018-12-02T04:36:46.962Z,24.32
2018-12-02T04:37:46.953Z,24.42
2018-12-02T04:38:46.939Z,24.40
2018-12-02T04:39:46.929Z,24.39
2018-12-02T04:40:46.917Z,24.47
2018-12-02T04:41:46.905Z,24.39
2018-12-02T04:42:46.915Z,24.32
2018-12-02T04:43:46.883Z,24.43
2018-12-02T04:44:46.872Z,24.35
2018-12-02T04:45:46.861Z,24.43
2018-12-02T04:46:46.849Z,24.42
2018-12-02T04:47:46.837Z,24.35
2018-12-02T04:48:46.829Z,24.42
2018-12-02T04:49:46.816Z,24.42
2018-12-02T04:50:46.805Z,24.39
2018-12-02T04:51:46.794Z,24.39
2018-12-02T04:52:46.792Z,24.37
2018-12-02T04:53:46.789Z,24.32
2018-12-02T04:54:46.759Z,24.37
2018-12-02T04:55:46.747Z,24.35
2018-12-02T04:56:46.740Z,24.31
2018-12-02T04:57:46.724Z,24.42
2018-12-02T04:58:46.712Z,24.32
2018-12-02T04:59:47.362Z,24.34
2018-12-02T05:00:46.691Z,24.32
2018-12-02T05:01:46.679Z,24.30
2018-12-02T05:02:46.668Z,24.32
2018-12-02T05:03:46.659Z,24.32
2018-12-02T05:04:46.658Z,24.35
2018-12-02T05:05:46.637Z,24.31
2018-12-02T05:06:46.625Z,24.43
2018-12-02T05:07:46.617Z,24.37
2018-12-02T05:08:46.600Z,24.30
2018-12-02T05:09:46.590Z,24.34
2018-12-02T05:10:46.581Z,24.42
2018-12-02T05:11:46.569Z,24.42
2018-12-02T05:12:46.556Z,24.32
2018-12-02T05:13:46.545Z,24.30
2018-12-02T05:14:46.533Z,24.34
2018-12-02T05:15:46.544Z,24.39
2018-12-02T05:16:46.510Z,24.37
2018-12-02T05:17:46.501Z,24.37
2018-12-02T05:18:46.491Z,24.42
2018-12-02T05:19:46.485Z,24.40
2018-12-02T05:20:46.466Z,24.35
2018-12-02T05:21:46.456Z,24.45
2018-12-02T05:22:46.444Z,24.42
2018-12-02T05:23:46.431Z,24.30
2018-12-02T05:24:46.420Z,24.32
2018-12-02T05:25:46.409Z,24.32
2018-12-02T05:26:46.405Z,24.37
2018-12-02T05:27:46.386Z,24.40
2018-12-02T05:28:46.376Z,24.34
2018-12-02T05:29:46.363Z,24.34
2018-12-02T05:30:46.353Z,24.42
2018-12-02T05:31:46.341Z,24.37
2018-12-02T05:32:46.332Z,24.40
2018-12-02T05:33:46.319Z,24.34
2018-12-02T05:34:46.307Z,24.37
2018-12-02T05:35:46.296Z,24.37
2018-12-02T05:36:46.287Z,24.31
2018-12-02T05:37:46.292Z,24.37
2018-12-02T05:38:46.262Z,24.32
2018-12-02T05:39:46.253Z,24.31
2018-12-02T05:40:46.240Z,24.34
2018-12-02T05:41:46.228Z,24.37
2018-12-02T05:42:46.216Z,24.34
2018-12-02T05:43:46.208Z,24.32
2018-12-02T05:44:46.193Z,24.40
2018-12-02T05:45:46.182Z,24.32
2018-12-02T05:46:46.172Z,24.34
2018-12-02T05:47:46.164Z,24.39
2018-12-02T05:48:46.472Z,24.40
2018-12-02T05:49:46.137Z,24.39
2018-12-02T05:50:46.125Z,24.34
2018-12-02T05:51:46.114Z,24.32
2018-12-02T05:52:46.102Z,24.35
2018-12-02T05:53:46.092Z,24.39
2018-12-02T05:54:46.082Z,24.34
2018-12-02T05:55:46.070Z,24.35
2018-12-02T05:56:46.063Z,24.32
2018-12-02T05:57:46.047Z,24.31
2018-12-02T05:58:46.035Z,24.27
2018-12-02T05:59:46.031Z,24.31
2018-12-02T06:00:46.013Z,24.35
2018-12-02T06:01:46.001Z,24.37
2018-12-02T06:02:45.994Z,24.40
2018-12-02T06:03:45.982Z,24.40
2018-12-02T06:04:45.972Z,24.40
2018-12-02T06:05:45.959Z,24.32
2018-12-02T06:06:45.946Z,24.37
2018-12-02T06:07:45.934Z,24.39
2018-12-02T06:08:45.923Z,24.34
2018-12-02T06:09:45.911Z,24.37
2018-12-02T06:10:45.907Z,24.34
2018-12-02T06:11:45.888Z,24.34
2018-12-02T06:12:45.877Z,24.35
2018-12-02T06:13:45.866Z,24.35
2018-12-02T06:14:45.854Z,24.40
2018-12-02T06:15:45.843Z,24.35
2018-12-02T06:16:45.837Z,24.31
2018-12-02T06:17:45.821Z,24.32
2018-12-02T06:18:45.810Z,24.37
2018-12-02T06:19:45.798Z,24.37
2018-12-02T06:20:45.787Z,24.37
2018-12-02T06:21:46.059Z,24.37
2018-12-02T06:22:45.765Z,24.35
2018-12-02T06:23:45.754Z,24.30
2018-12-02T06:24:45.743Z,24.37
2018-12-02T06:25:46.563Z,24.34
2018-12-02T06:26:45.719Z,24.35
2018-12-02T06:27:45.708Z,24.39
2018-12-02T06:28:45.696Z,24.35
2018-12-02T06:29:45.685Z,24.28
2018-12-02T06:30:45.674Z,24.39
2018-12-02T06:31:45.664Z,24.34
2018-12-02T06:32:45.659Z,24.32
2018-12-02T06:33:45.640Z,24.31
2018-12-02T06:34:45.629Z,24.35
2018-12-02T06:35:45.617Z,24.40
2018-12-02T06:36:45.607Z,24.34
2018-12-02T06:37:45.599Z,24.32
2018-12-02T06:38:45.586Z,24.35
2018-12-02T06:39:45.573Z,24.32
2018-12-02T06:40:45.564Z,24.35
2018-12-02T06:41:45.550Z,24.31
2018-12-02T06:42:45.541Z,24.34
2018-12-02T06:43:45.548Z,24.35
2018-12-02T06:44:45.518Z,24.31
2018-12-02T06:45:45.505Z,24.34
2018-12-02T06:46:45.497Z,24.30
2018-12-02T06:47:45.483Z,24.34
2018-12-02T06:48:45.470Z,24.35
2018-12-02T06:49:45.466Z,24.30
2018-12-02T06:50:45.448Z,24.37
2018-12-02T06:51:45.440Z,24.37
2018-12-02T06:52:45.428Z,24.31
2018-12-02T06:53:45.416Z,24.32
2018-12-02T06:54:45.726Z,24.39
2018-12-02T06:55:45.392Z,24.34
2018-12-02T06:56:45.380Z,24.32
2018-12-02T06:57:45.370Z,24.28
2018-12-02T06:58:45.357Z,24.27
2018-12-02T06:59:45.348Z,24.35
2018-12-02T07:00:45.338Z,24.30
2018-12-02T07:01:45.324Z,24.32
2018-12-02T07:02:45.311Z,24.30
2018-12-02T07:03:45.302Z,24.35
2018-12-02T07:04:45.290Z,24.28
2018-12-02T07:05:45.287Z,24.34
2018-12-02T07:06:45.267Z,24.27
2018-12-02T07:07:45.256Z,24.30
2018-12-02T07:08:45.245Z,24.34
2018-12-02T07:09:45.241Z,24.31
2018-12-02T07:10:45.222Z,24.34
2018-12-02T07:11:45.213Z,24.35
2018-12-02T07:12:45.200Z,24.35
2018-12-02T07:13:45.187Z,24.37
2018-12-02T07:14:45.179Z,24.31
2018-12-02T07:15:45.170Z,24.32
2018-12-02T07:16:45.163Z,24.31
2018-12-02T07:17:45.143Z,24.28
2018-12-02T07:18:45.134Z,24.32
2018-12-02T07:19:45.121Z,24.28
2018-12-02T07:20:45.108Z,24.31
2018-12-02T07:21:45.099Z,24.35
2018-12-02T07:22:45.090Z,24.32
2018-12-02T07:23:45.076Z,24.34
2018-12-02T07:24:45.064Z,24.32
2018-12-02T07:25:45.053Z,24.28
2018-12-02T07:26:45.044Z,24.31
2018-12-02T07:27:45.352Z,24.35
2018-12-02T07:28:45.019Z,24.31
2018-12-02T07:29:45.008Z,24.37
2018-12-02T07:30:44.997Z,24.31
2018-12-02T07:31:44.987Z,24.31
2018-12-02T07:32:44.973Z,24.32
2018-12-02T07:33:44.966Z,24.35
2018-12-02T07:34:44.957Z,24.34
2018-12-02T07:35:44.940Z,24.37
2018-12-02T07:36:44.929Z,24.27
2018-12-02T07:37:44.919Z,24.31
2018-12-02T07:38:44.917Z,24.32
2018-12-02T07:39:44.895Z,24.28
2018-12-02T07:40:44.884Z,24.34
2018-12-02T07:41:44.875Z,24.34
2018-12-02T07:42:44.865Z,24.34
2018-12-02T07:43:44.851Z,24.31
2018-12-02T07:44:44.840Z,24.31
2018-12-02T07:45:44.828Z,24.34
2018-12-02T07:46:44.816Z,24.32
2018-12-02T07:47:44.805Z,24.34
2018-12-02T07:48:44.794Z,24.30
2018-12-02T07:49:44.792Z,24.30
2018-12-02T07:50:44.772Z,24.31
2018-12-02T07:51:44.762Z,24.30
2018-12-02T07:52:44.749Z,24.31
2018-12-02T07:53:44.737Z,24.30
2018-12-02T07:54:44.725Z,24.35
2018-12-02T07:55:44.718Z,24.34
2018-12-02T07:56:44.702Z,24.28
2018-12-02T07:57:44.692Z,24.35
2018-12-02T07:58:44.680Z,24.35
2018-12-02T07:59:44.669Z,24.32
2018-12-02T08:00:44.943Z,24.28
2018-12-02T08:01:44.646Z,24.37
2018-12-02T08:02:44.637Z,24.34
2018-12-02T08:03:44.623Z,24.34
2018-12-02T08:04:44.612Z,24.37
2018-12-02T08:05:44.601Z,24.32
2018-12-02T08:06:44.592Z,24.30
2018-12-02T08:07:44.579Z,24.32
2018-12-02T08:08:44.569Z,24.34
2018-12-02T08:09:44.557Z,24.31
2018-12-02T08:10:44.547Z,24.32
2018-12-02T08:11:44.554Z,24.37
2018-12-02T08:12:44.526Z,24.32
2018-12-02T08:13:44.511Z,24.37
2018-12-02T08:14:44.500Z,24.32
2018-12-02T08:15:44.488Z,24.34
2018-12-02T08:16:44.477Z,24.32
2018-12-02T08:17:44.472Z,24.31
2018-12-02T08:18:44.456Z,24.28
2018-12-02T08:19:44.446Z,24.31
2018-12-02T08:20:44.432Z,24.34
2018-12-02T08:21:44.420Z,24.32
2018-12-02T08:22:44.415Z,24.34
2018-12-02T08:23:44.399Z,24.34
2018-12-02T08:24:44.387Z,24.34
2018-12-02T08:25:44.375Z,24.37
2018-12-02T08:26:44.365Z,24.27
2018-12-02T08:27:44.351Z,24.35
2018-12-02T08:28:44.341Z,24.35
2018-12-02T08:29:44.331Z,24.32
2018-12-02T08:30:44.318Z,24.34
2018-12-02T08:31:44.306Z,24.34
2018-12-02T08:32:44.295Z,24.31
2018-12-02T08:33:44.569Z,24.35
2018-12-02T08:34:44.273Z,24.34
2018-12-02T08:35:44.262Z,24.30
2018-12-02T08:36:44.251Z,24.35
2018-12-02T08:37:44.240Z,24.35
2018-12-02T08:38:44.227Z,24.37
2018-12-02T08:39:44.218Z,24.37
2018-12-02T08:40:44.204Z,24.30
2018-12-02T08:41:44.194Z,24.37
2018-12-02T08:42:44.182Z,24.34
2018-12-02T08:43:44.171Z,24.35
2018-12-02T08:44:44.166Z,24.34
2018-12-02T08:45:44.150Z,24.42
2018-12-02T08:46:44.137Z,24.37
2018-12-02T08:47:44.129Z,24.32
2018-12-02T08:48:44.115Z,24.34
2018-12-02T08:49:44.106Z,24.40
2018-12-02T08:50:44.095Z,24.32
2018-12-02T08:51:44.082Z,24.35
2018-12-02T08:52:44.071Z,24.40
2018-12-02T08:53:44.062Z,24.43
2018-12-02T08:54:44.048Z,24.32
2018-12-02T08:55:44.044Z,24.32
2018-12-02T08:56:44.024Z,24.32
2018-12-02T08:57:44.022Z,24.35
2018-12-02T08:58:44.004Z,24.32
2018-12-02T08:59:43.991Z,24.32
2018-12-02T09:00:43.980Z,24.32
2018-12-02T09:01:43.970Z,24.32
2018-12-02T09:02:43.956Z,24.39
2018-12-02T09:03:43.945Z,24.39
2018-12-02T09:04:43.934Z,24.34
2018-12-02T09:05:43.922Z,24.42
2018-12-02T09:06:44.180Z,24.35
2018-12-02T09:07:43.900Z,24.32
2018-12-02T09:08:43.890Z,24.34
2018-12-02T09:09:43.877Z,24.42
2018-12-02T09:10:45.145Z,24.40
2018-12-02T09:11:43.855Z,24.31
2018-12-02T09:12:43.855Z,24.37
2018-12-02T09:13:43.833Z,24.35
2018-12-02T09:14:43.822Z,24.37
2018-12-02T09:15:43.809Z,24.42
2018-12-02T09:16:43.800Z,24.39
2018-12-02T09:17:43.794Z,24.37
2018-12-02T09:18:43.776Z,24.40
2018-12-02T09:19:43.765Z,24.40
2018-12-02T09:20:43.755Z,24.40
2018-12-02T09:21:43.744Z,24.40
2018-12-02T09:22:43.731Z,24.37
2018-12-02T09:23:47.394Z,24.42
2018-12-02T09:24:43.707Z,24.42
2018-12-02T09:25:43.697Z,24.34
2018-12-02T09:26:43.685Z,24.31
2018-12-02T09:27:43.675Z,24.40
2018-12-02T09:28:43.686Z,24.42
2018-12-02T09:29:43.651Z,24.37
2018-12-02T09:30:43.640Z,24.37
2018-12-02T09:31:43.628Z,24.31
2018-12-02T09:32:43.619Z,24.37
2018-12-02T09:33:43.610Z,24.37
2018-12-02T09:34:43.597Z,24.40
2018-12-02T09:35:43.587Z,24.42
2018-12-02T09:36:43.574Z,24.32
2018-12-02T09:37:43.561Z,24.34
2018-12-02T09:38:43.551Z,24.32
2018-12-02T09:39:43.824Z,24.42
2018-12-02T09:40:43.527Z,24.35
2018-12-02T09:41:43.517Z,24.43
2018-12-02T09:42:43.505Z,24.43
2018-12-02T09:43:43.493Z,24.40
2018-12-02T09:44:43.485Z,24.40
2018-12-02T09:45:43.474Z,24.35
2018-12-02T09:46:43.460Z,24.45
2018-12-02T09:47:43.448Z,24.39
2018-12-02T09:48:43.438Z,24.45
2018-12-02T09:49:43.425Z,24.40
2018-12-02T09:50:43.438Z,24.45
2018-12-02T09:51:43.406Z,24.42
2018-12-02T09:52:43.393Z,24.42
2018-12-02T09:53:43.381Z,24.39
2018-12-02T09:54:43.371Z,24.42
2018-12-02T09:55:43.359Z,24.43
2018-12-02T09:56:43.349Z,24.42
2018-12-02T09:57:43.335Z,24.37
2018-12-02T09:58:43.324Z,24.39
2018-12-02T09:59:43.314Z,24.40
2018-12-02T10:00:43.303Z,24.45
2018-12-02T10:01:43.299Z,24.42
2018-12-02T10:02:43.284Z,24.43
2018-12-02T10:03:43.270Z,24.39
2018-12-02T10:04:43.256Z,24.39
2018-12-02T10:05:43.247Z,24.37
2018-12-02T10:06:43.235Z,24.35
2018-12-02T10:07:43.225Z,24.42
2018-12-02T10:08:43.212Z,24.39
2018-12-02T10:09:43.205Z,24.42
2018-12-02T10:10:43.189Z,24.39
2018-12-02T10:11:43.179Z,24.35
2018-12-02T10:12:43.453Z,24.32
2018-12-02T10:13:43.155Z,24.43
2018-12-02T10:14:43.144Z,24.45
2018-12-02T10:15:43.133Z,24.42
2018-12-02T10:16:43.121Z,24.34
2018-12-02T10:17:43.116Z,24.42
2018-12-02T10:18:43.104Z,24.34
2018-12-02T10:19:43.088Z,24.39
2018-12-02T10:20:43.076Z,24.39
2018-12-02T10:21:43.064Z,24.42
2018-12-02T10:22:43.054Z,24.39
2018-12-02T10:23:43.064Z,24.35
2018-12-02T10:24:43.033Z,24.37
2018-12-02T10:25:43.020Z,24.39
2018-12-02T10:26:43.007Z,24.35
2018-12-02T10:27:42.998Z,24.43
2018-12-02T10:28:42.985Z,24.40
2018-12-02T10:29:42.979Z,24.46
2018-12-02T10:30:42.963Z,24.39
2018-12-02T10:31:42.951Z,24.37
2018-12-02T10:32:42.946Z,24.42
2018-12-02T10:33:42.933Z,24.47
2018-12-02T10:34:42.943Z,24.46
2018-12-02T10:35:42.905Z,24.50
2018-12-02T10:36:42.894Z,24.42
2018-12-02T10:37:42.885Z,24.40
2018-12-02T10:38:42.873Z,24.40
2018-12-02T10:39:42.861Z,24.43
2018-12-02T10:40:42.855Z,24.45
2018-12-02T10:41:42.843Z,24.37
2018-12-02T10:42:42.827Z,24.43
2018-12-02T10:43:42.816Z,24.40
2018-12-02T10:44:42.809Z,24.42
2018-12-02T10:45:42.801Z,24.34
2018-12-02T10:46:44.107Z,24.40
2018-12-02T10:47:42.774Z,24.43
2018-12-02T10:48:42.759Z,24.53
2018-12-02T10:49:42.751Z,24.52
2018-12-02T10:50:42.738Z,24.40
2018-12-02T10:51:42.731Z,24.46
2018-12-02T10:52:42.715Z,24.49
2018-12-02T10:53:42.702Z,24.50
2018-12-02T10:54:42.694Z,24.50
2018-12-02T10:55:42.680Z,24.35
2018-12-02T10:56:42.675Z,24.39
2018-12-02T10:57:42.658Z,24.52
2018-12-02T10:58:42.647Z,24.47
2018-12-02T10:59:42.635Z,24.46
2018-12-02T11:00:42.626Z,24.47
2018-12-02T11:01:42.612Z,24.45
2018-12-02T11:02:42.602Z,24.43
2018-12-02T11:03:42.590Z,24.45
2018-12-02T11:04:42.583Z,24.40
2018-12-02T11:05:42.566Z,24.35
2018-12-02T11:06:42.556Z,24.50
2018-12-02T11:07:42.551Z,24.42
2018-12-02T11:08:42.532Z,24.49
2018-12-02T11:09:42.524Z,24.37
2018-12-02T11:10:42.512Z,24.52
2018-12-02T11:11:42.502Z,24.52
2018-12-02T11:12:42.489Z,24.40
2018-12-02T11:13:42.479Z,24.47
2018-12-02T11:14:42.465Z,24.35
2018-12-02T11:15:42.455Z,24.45
2018-12-02T11:16:42.446Z,24.45
2018-12-02T11:17:42.432Z,24.40
2018-12-02T11:18:42.443Z,24.43
2018-12-02T11:19:42.409Z,24.53
2018-12-02T11:20:42.398Z,24.49
2018-12-02T11:21:42.388Z,24.46
2018-12-02T11:22:42.377Z,24.50
2018-12-02T11:23:42.368Z,24.43
2018-12-02T11:24:42.358Z,24.43
2018-12-02T11:25:42.342Z,24.42
2018-12-02T11:26:42.330Z,24.49
2018-12-02T11:27:42.319Z,24.46
2018-12-02T11:28:42.308Z,24.40
2018-12-02T11:29:42.860Z,24.45
2018-12-02T11:30:42.285Z,24.40
2018-12-02T11:31:42.275Z,24.43
2018-12-02T11:32:42.264Z,24.45
2018-12-02T11:33:42.251Z,24.52
2018-12-02T11:34:42.240Z,24.52
2018-12-02T11:35:42.230Z,24.52
2018-12-02T11:36:42.217Z,24.45
2018-12-02T11:37:42.206Z,24.39
2018-12-02T11:38:42.195Z,24.50
2018-12-02T11:39:42.183Z,24.40
2018-12-02T11:40:42.180Z,24.47
2018-12-02T11:41:42.161Z,24.47
2018-12-02T11:42:42.151Z,24.46
2018-12-02T11:43:42.138Z,24.52
2018-12-02T11:44:42.129Z,24.52
2018-12-02T11:45:42.114Z,24.37
2018-12-02T11:46:42.105Z,24.50
2018-12-02T11:47:42.092Z,24.40
2018-12-02T11:48:42.080Z,24.53
2018-12-02T11:49:42.070Z,24.49
2018-12-02T11:50:42.059Z,24.50
2018-12-02T11:51:42.325Z,24.40
2018-12-02T11:52:42.042Z,24.49
2018-12-02T11:53:42.027Z,24.50
2018-12-02T11:54:42.014Z,24.47
2018-12-02T11:55:42.002Z,24.50
2018-12-02T11:56:41.991Z,24.47
2018-12-02T11:57:41.981Z,24.50
2018-12-02T11:58:41.969Z,24.47
2018-12-02T11:59:41.956Z,24.52
2018-12-02T12:00:41.948Z,24.47
2018-12-02T12:01:41.935Z,24.50
2018-12-02T12:02:41.931Z,24.57
2018-12-02T12:03:41.912Z,24.49
2018-12-02T12:04:41.905Z,24.49
2018-12-02T12:05:41.888Z,24.39
2018-12-02T12:06:41.878Z,24.47
2018-12-02T12:07:41.866Z,24.53
2018-12-02T12:08:41.858Z,24.55
2018-12-02T12:09:41.844Z,24.46
2018-12-02T12:10:41.833Z,24.42
2018-12-02T12:11:41.822Z,24.42
2018-12-02T12:12:41.812Z,24.52
2018-12-02T12:13:41.806Z,24.47
2018-12-02T12:14:41.791Z,24.42
2018-12-02T12:15:41.776Z,24.42
2018-12-02T12:16:41.765Z,24.50
2018-12-02T12:17:41.754Z,24.39
2018-12-02T12:18:41.743Z,24.40
2018-12-02T12:19:42.070Z,24.52
2018-12-02T12:20:41.720Z,24.46
2018-12-02T12:21:41.708Z,24.39
2018-12-02T12:22:44.258Z,24.45
2018-12-02T12:23:41.688Z,24.35
2018-12-02T12:24:41.684Z,24.47
2018-12-02T12:25:41.664Z,24.39
2018-12-02T12:26:41.651Z,24.47
2018-12-02T12:27:41.640Z,24.39
2018-12-02T12:28:41.629Z,24.50
2018-12-02T12:29:41.617Z,24.49
2018-12-02T12:30:41.611Z,24.37
2018-12-02T12:31:41.597Z,24.47
2018-12-02T12:32:41.584Z,24.49
2018-12-02T12:33:41.574Z,24.39
2018-12-02T12:34:41.563Z,24.45
2018-12-02T12:35:41.558Z,24.47
2018-12-02T12:36:41.538Z,24.40
2018-12-02T12:37:41.527Z,24.52
2018-12-02T12:38:41.519Z,24.49
2018-12-02T12:39:41.505Z,24.45
2018-12-02T12:40:41.495Z,24.46
2018-12-02T12:41:41.485Z,24.49
2018-12-02T12:42:41.472Z,24.43
2018-12-02T12:43:41.460Z,24.47
2018-12-02T12:44:41.448Z,24.49
2018-12-02T12:45:41.438Z,24.43
2018-12-02T12:46:41.713Z,24.47
2018-12-02T12:47:41.416Z,24.46
2018-12-02T12:48:41.404Z,24.47
2018-12-02T12:49:41.392Z,24.39
2018-12-02T12:50:41.381Z,24.42
2018-12-02T12:51:41.369Z,24.42
2018-12-02T12:52:41.362Z,24.39